Time;durP1;ratioP1;P1;durP2;ratioP2;P2;SDS_P1;SDS_P2;PMS_P1;PMS_P2;Temp;Humidity;BMP_temperature;BMP_pressure;BME280_temperature;BME280_humidity;BME280_pressure;Samples;Min_cycle;Max_cycle;Signal;HPM_P1;HPM_P2
2023/03/07 00:03:13;;;;;;;25.73;14.15;;;;;;;4.25;57.95;98787.66;7710384;32;40005;-85
2023/03/07 00:07:30;;;;;;;30.90;14.07;;;;;;;4.03;58.64;98780.41;7710323;32;37937;-85
2023/03/07 00:11:46;;;;;;;25.42;13.65;;;;;;;3.97;59.04;98786.81;7710000;32;37323;-85
2023/03/07 00:16:05;;;;;;;27.95;14.25;;;;;;;4.15;58.34;98785.66;7710589;32;38900;-85
2023/03/07 00:20:21;;;;;;;23.65;12.73;;;;;;;4.04;58.86;98782.03;7709274;32;39809;-85
2023/03/07 00:24:38;;;;;;;24.08;13.62;;;;;;;4.02;58.71;98784.19;7709563;32;37827;-84
2023/03/07 00:28:54;;;;;;;24.60;13.35;;;;;;;3.95;59.21;98783.56;7709618;32;38001;-85
2023/03/07 00:33:11;;;;;;;25.95;12.88;;;;;;;4.14;58.74;98782.16;7712524;32;39238;-85
2023/03/07 00:37:29;;;;;;;27.37;14.40;;;;;;;3.85;59.06;98776.19;7711896;32;39826;-84
2023/03/07 00:41:45;;;;;;;25.30;13.93;;;;;;;3.85;59.18;98780.75;7712262;32;36985;-85
2023/03/07 00:46:03;;;;;;;23.83;13.20;;;;;;;3.75;59.08;98787.66;7686333;32;36340;-85
2023/03/07 00:50:19;;;;;;;26.50;13.62;;;;;;;3.87;58.59;98786.72;7698496;32;37902;-84
2023/03/07 00:54:35;;;;;;;25.35;13.98;;;;;;;3.54;59.48;98788.47;7712692;32;39817;-84
2023/03/07 00:58:52;;;;;;;28.87;14.40;;;;;;;3.52;59.66;98785.22;7712558;32;38399;-85
2023/03/07 01:03:08;;;;;;;25.75;12.98;;;;;;;3.73;58.74;98773.59;7712823;32;37242;-85
2023/03/07 01:07:24;;;;;;;29.92;13.80;;;;;;;3.50;60.09;98765.75;7712759;32;39378;-84
2023/03/07 01:11:40;;;;;;;25.20;12.82;;;;;;;3.69;59.47;98753.63;7712202;32;40776;-85
2023/03/07 01:16:17;;;;;;;28.27;14.07;;;;;;;3.62;59.97;98736.00;7711278;32;37984;-84
2023/03/07 01:20:35;;;;;;;30.50;13.80;;;;;;;3.54;60.31;98737.28;7711291;32;37200;-85
2023/03/07 01:24:51;;;;;;;25.70;14.32;;;;;;;3.30;61.27;98739.41;7712571;32;38467;-85
2023/03/07 01:29:07;;;;;;;27.60;14.87;;;;;;;3.48;60.86;98740.97;7712390;32;39716;-85
2023/03/07 01:33:24;;;;;;;32.10;13.93;;;;;;;3.53;60.45;98744.53;7712298;32;38555;-85
2023/03/07 01:37:40;;;;;;;26.33;14.25;;;;;;;3.72;59.56;98738.81;7712438;32;38052;-86
2023/03/07 01:41:57;;;;;;;26.37;15.15;;;;;;;3.70;60.06;98749.84;7711740;32;39380;-86
2023/03/07 01:46:19;;;;;;;26.05;13.88;;;;;;;3.70;60.05;98739.06;7712311;32;39922;-85
2023/03/07 01:50:35;;;;;;;28.35;14.10;;;;;;;3.65;60.18;98741.69;7711952;32;37937;-84
2023/03/07 01:55:01;;;;;;;29.63;15.05;;;;;;;3.60;60.30;98736.25;7711882;32;37786;-86
2023/03/07 01:59:25;;;;;;;26.30;13.90;;;;;;;3.48;60.41;98728.28;7711224;32;39207;-85
2023/03/07 02:03:48;;;;;;;;;;;;;;;3.46;60.50;98721.53;7710905;32;40808;-85
2023/03/07 02:08:07;;;;;;;28.90;15.00;;;;;;;3.45;60.44;98730.69;7711811;32;38122;-84
2023/03/07 02:12:23;;;;;;;34.20;15.45;;;;;;;3.37;60.66;98718.47;7711473;32;37351;-84
2023/03/07 02:16:40;;;;;;;24.63;14.07;;;;;;;3.56;60.26;98727.84;7710671;32;39358;-84
2023/03/07 02:21:15;;;;;;;20.42;10.23;;;;;;;3.55;60.22;98723.53;7711414;32;39994;-79
2023/03/07 02:25:42;;;;;;;28.23;14.38;;;;;;;3.85;63.86;98730.34;7711697;32;37971;-84
2023/03/07 02:29:58;;;;;;;28.45;15.68;;;;;;;3.49;61.66;98732.62;7711767;32;38030;-85
2023/03/07 02:34:26;;;;;;;25.90;13.95;;;;;;;3.48;60.68;98738.25;7711469;32;40030;-85
2023/03/07 02:38:44;;;;;;;27.13;14.48;;;;;;;3.39;60.71;98722.53;7710563;32;40090;-84
2023/03/07 02:43:04;;;;;;;26.05;14.25;;;;;;;3.19;61.10;98733.88;7697708;32;38822;-83
2023/03/07 02:47:20;;;;;;;26.05;13.95;;;;;;;3.65;59.67;98736.31;7698407;32;38733;-85
2023/03/07 02:51:37;;;;;;;26.77;13.90;;;;;;;3.53;60.20;98730.25;7711309;32;39319;-85
2023/03/07 02:55:53;;;;;;;30.05;15.55;;;;;;;3.42;60.41;98741.97;7710166;32;40676;-85
2023/03/07 03:00:11;;;;;;;28.23;15.00;;;;;;;3.25;61.00;98736.63;7711084;32;38814;-86
2023/03/07 03:04:27;;;;;;;35.47;19.55;;;;;;;3.52;60.38;98725.94;7711766;32;38028;-84
2023/03/07 03:08:44;;;;;;;33.45;16.20;;;;;;;3.53;60.47;98739.12;7711067;32;39288;-85
2023/03/07 03:13:00;;;;;;;33.30;16.23;;;;;;;3.46;60.84;98732.31;7710829;32;39897;-86
2023/03/07 03:17:17;;;;;;;28.65;15.07;;;;;;;3.48;60.87;98735.56;7711560;32;38156;-86
2023/03/07 03:21:33;;;;;;;31.62;16.20;;;;;;;3.39;61.30;98741.38;7710755;32;37817;-84
2023/03/07 03:26:04;;;;;;;32.42;16.20;;;;;;;3.40;61.40;98744.91;7711330;32;39933;-85
2023/03/07 03:30:20;;;;;;;27.20;15.10;;;;;;;3.45;61.21;98730.69;7697517;32;40725;-84
2023/03/07 03:34:36;;;;;;;35.55;17.52;;;;;;;3.61;60.50;98735.19;7708994;32;37945;-85
2023/03/07 03:38:57;;;;;;;29.75;15.75;;;;;;;3.42;61.47;98736.59;7709690;32;38212;-85
2023/03/07 03:43:13;;;;;;;30.45;15.57;;;;;;;3.46;61.21;98730.44;7710840;32;40018;-85
2023/03/07 03:47:29;;;;;;;29.70;16.17;;;;;;;3.51;60.74;98724.28;7710768;32;39647;-84
2023/03/07 03:51:45;;;;;;;34.42;16.17;;;;;;;3.51;60.46;98714.31;7709218;32;38421;-83
2023/03/07 03:56:11;;;;;;;30.92;15.93;;;;;;;3.84;59.51;98709.00;7710324;32;37920;-85
2023/03/07 04:00:27;;;;;;;33.67;15.65;;;;;;;3.43;60.50;98716.66;7709221;32;40170;-84
2023/03/07 04:04:43;;;;;;;28.38;14.73;;;;;;;3.71;59.48;98700.25;7710125;32;39740;-84
2023/03/07 04:09:02;;;;;;;30.85;15.10;;;;;;;3.71;59.88;98692.19;7696596;32;37827;-84
2023/03/07 04:13:18;;;;;;;32.33;16.62;;;;;;;3.53;60.02;98695.19;7709953;32;37171;-85
2023/03/07 04:17:35;;;;;;;26.95;15.38;;;;;;;3.45;60.05;98701.03;7710077;32;40182;-85
2023/03/07 04:21:51;;;;;;;29.90;15.55;;;;;;;3.45;60.09;98703.72;7709517;32;39704;-85
2023/03/07 04:26:08;;;;;;;28.60;14.93;;;;;;;3.62;59.47;98707.16;7710145;32;39409;-84
2023/03/07 04:30:25;;;;;;;30.40;15.05;;;;;;;3.43;59.91;98722.03;7709616;32;38019;-84
2023/03/07 04:34:41;;;;;;;35.22;16.67;;;;;;;3.26;60.42;98733.69;7708527;32;39360;-85
2023/03/07 04:38:57;;;;;;;32.20;15.75;;;;;;;3.29;60.49;98741.25;7709624;32;39737;-84
2023/03/07 04:43:13;;;;;;;28.25;14.85;;;;;;;3.26;60.84;98749.84;7709445;32;37540;-83
2023/03/07 04:47:29;;;;;;;37.45;16.90;;;;;;;3.49;60.26;98743.41;7709486;32;37040;-84
2023/03/07 04:51:46;;;;;;;36.20;17.05;;;;;;;3.27;60.95;98747.97;7709149;32;39260;-84
2023/03/07 04:56:04;;;;;;;29.90;15.40;;;;;;;3.24;60.90;98740.38;7708465;32;40040;-84
2023/03/07 05:00:21;;;;;;;27.15;15.02;;;;;;;3.05;61.24;98737.16;7715566;32;36852;-84
2023/03/07 05:04:37;;;;;;;28.20;14.82;;;;;;;3.25;60.55;98745.53;7708988;32;37389;-85
2023/03/07 05:08:53;;;;;;;30.62;15.88;;;;;;;3.07;61.21;98751.19;7708733;32;39211;-85
2023/03/07 05:13:10;;;;;;;27.83;15.40;;;;;;;3.26;60.68;98754.41;7708745;32;40617;-84
2023/03/07 05:17:28;;;;;;;28.83;15.98;;;;;;;3.29;60.33;98753.91;7710024;32;37761;-84
2023/03/07 05:21:46;;;;;;;31.48;16.80;;;;;;;3.41;59.84;98751.09;7712585;32;36210;-85
2023/03/07 05:26:02;;;;;;;31.37;15.90;;;;;;;3.09;60.64;98751.78;7712303;32;39926;-84
2023/03/07 05:30:20;;;;;;;33.00;17.08;;;;;;;3.06;61.26;98753.06;7711095;32;41103;-85
2023/03/07 05:34:39;;;;;;;33.15;16.52;;;;;;;2.82;62.20;98755.16;7711882;32;37867;-84
2023/03/07 05:38:56;;;;;;;26.85;15.93;;;;;;;3.07;61.44;98752.03;7712242;32;36926;-84
2023/03/07 05:43:12;;;;;;;30.80;16.23;;;;;;;3.18;61.12;98752.97;7712010;32;39265;-82
2023/03/07 05:47:29;;;;;;;30.55;17.05;;;;;;;2.96;62.20;98751.03;7712249;32;39684;-84
2023/03/07 05:51:45;;;;;;;33.75;16.85;;;;;;;2.53;63.35;98762.50;7710982;32;38781;-84
2023/03/07 05:56:01;;;;;;;32.65;17.12;;;;;;;3.01;61.86;98756.50;7711611;32;36987;-84
2023/03/07 06:00:18;;;;;;;30.30;16.27;;;;;;;3.14;61.43;98758.06;7712198;32;39182;-84
2023/03/07 06:04:34;;;;;;;34.35;17.05;;;;;;;3.14;61.50;98755.34;7710515;32;39717;-87
2023/03/07 06:08:52;;;;;;;29.60;16.85;;;;;;;3.26;61.41;98757.94;7708462;32;38162;-85
2023/03/07 06:13:17;;;;;;;38.17;18.73;;;;;;;3.20;61.62;98769.69;7723084;32;37260;-84
2023/03/07 06:17:33;;;;;;;40.30;17.55;;;;;;;3.05;62.63;98780.25;7709974;32;39403;-85
2023/03/07 06:21:50;;;;;;;34.22;17.02;;;;;;;3.30;61.98;98783.31;7711035;32;40542;-84
2023/03/07 06:26:07;;;;;;;32.08;17.15;;;;;;;3.25;61.96;98777.84;7709802;32;37871;-84
2023/03/07 06:30:23;;;;;;;38.38;19.87;;;;;;;3.41;61.63;98784.25;7710685;32;37475;-84
2023/03/07 06:34:39;;;;;;;38.25;20.08;;;;;;;3.26;62.45;98779.50;7720591;32;39846;-84
2023/03/07 06:38:55;;;;;;;37.33;19.12;;;;;;;3.20;63.18;98775.09;7737561;32;40761;-84
2023/03/07 06:43:12;;;;;;;40.67;19.77;;;;;;;3.57;62.50;98782.59;7716049;32;37876;-83
2023/03/07 06:47:28;;;;;;;45.67;20.00;;;;;;;3.27;64.02;98777.59;7710826;32;37390;-84
2023/03/07 06:51:44;;;;;;;38.50;20.60;;;;;;;3.25;63.51;98777.03;7709666;32;38963;-85
2023/03/07 06:56:00;;;;;;;44.83;21.85;;;;;;;3.49;63.28;98774.94;7707368;32;40512;-86
2023/03/07 07:00:17;;;;;;;38.58;19.27;;;;;;;3.28;63.79;98782.75;7708296;32;38471;-85
2023/03/07 07:04:33;;;;;;;34.00;19.05;;;;;;;3.51;63.70;98787.09;7710138;32;37529;-84
2023/03/07 07:08:58;;;;;;;38.83;19.90;;;;;;;3.68;63.32;98784.31;7711090;32;39076;-86
2023/03/07 07:13:16;;;;;;;37.15;19.15;;;;;;;3.66;63.46;98773.00;7711214;32;39967;-85
2023/03/07 07:17:35;;;;;;;40.55;19.27;;;;;;;3.79;63.43;98779.06;7700070;32;316212;-82
2023/03/07 07:21:51;;;;;;;37.28;19.02;;;;;;;3.74;63.69;98767.16;7709460;32;37007;-84
2023/03/07 07:26:08;;;;;;;38.67;18.67;;;;;;;3.72;63.48;98780.06;7709280;32;39788;-83
2023/03/07 07:30:24;;;;;;;34.22;18.50;;;;;;;3.85;63.75;98775.38;7709753;32;40808;-85
2023/03/07 07:34:40;;;;;;;42.92;20.42;;;;;;;4.12;64.32;98783.47;7710251;32;37914;-85
2023/03/07 07:38:56;;;;;;;36.35;19.95;;;;;;;4.08;64.22;98788.53;7707996;32;37279;-84
2023/03/07 07:43:16;;;;;;;35.80;19.23;;;;;;;4.44;62.40;98790.78;7708969;32;38380;-84
2023/03/07 07:47:32;;;;;;;42.20;22.13;;;;;;;4.48;62.61;98781.94;7710923;32;40951;-83
2023/03/07 07:51:48;;;;;;;41.72;20.92;;;;;;;4.65;62.57;98786.38;7710393;32;38856;-83
2023/03/07 07:56:05;;;;;;;38.60;19.95;;;;;;;4.41;63.51;98781.31;7710446;32;38504;-85
2023/03/07 08:00:21;;;;;;;38.50;19.83;;;;;;;4.50;63.30;98785.19;7710778;32;40496;-84
2023/03/07 08:04:38;;;;;;;41.53;19.52;;;;;;;4.39;63.53;98788.84;7710705;32;39785;-83
2023/03/07 08:08:55;;;;;;;41.67;18.77;;;;;;;4.70;62.77;98787.22;7710509;32;38701;-83
2023/03/07 08:13:15;;;;;;;33.20;18.80;;;;;;;5.00;61.93;98788.56;7710419;32;37301;-84
2023/03/07 08:17:33;;;;;;;40.28;21.73;;;;;;;5.19;61.25;98796.22;7710393;32;39066;-79
2023/03/07 08:21:52;;;;;;;34.30;18.75;;;;;;;5.29;60.69;98788.19;7709844;32;39826;-84
2023/03/07 08:26:09;;;;;;;44.03;21.23;;;;;;;5.59;61.61;98798.34;7710070;32;37946;-84
2023/03/07 08:30:27;;;;;;;39.55;19.00;;;;;;;5.85;60.42;98790.34;7710439;32;36615;-84
2023/03/07 08:34:45;;;;;;;46.08;18.80;;;;;;;5.88;59.52;98789.81;7708898;32;40107;-84
2023/03/07 08:39:02;;;;;;;37.35;17.40;;;;;;;6.21;59.66;98787.78;7708657;32;40497;-84
2023/03/07 08:43:18;;;;;;;42.40;19.62;;;;;;;6.64;59.05;98780.25;7708777;32;37859;-85
2023/03/07 08:47:34;;;;;;;32.70;17.02;;;;;;;6.99;59.12;98780.50;7709563;32;37296;-85
2023/03/07 08:51:50;;;;;;;35.03;17.42;;;;;;;7.20;58.04;98784.00;7710817;32;37484;-83
2023/03/07 08:56:08;;;;;;;34.13;18.15;;;;;;;7.28;57.29;98781.53;7712680;32;39932;-85
2023/03/07 09:00:24;;;;;;;33.10;18.70;;;;;;;7.53;56.88;98783.34;7711685;32;38141;-85
2023/03/07 09:04:40;;;;;;;36.25;17.83;;;;;;;7.92;55.83;98789.16;7712926;32;37222;-86
2023/03/07 09:08:57;;;;;;;31.50;17.87;;;;;;;7.80;56.05;98787.59;7712840;32;40214;-86
2023/03/07 09:13:13;;;;;;;32.17;17.15;;;;;;;7.94;57.12;98787.81;7712418;32;39910;-85
2023/03/07 09:17:31;;;;;;;35.85;19.12;;;;;;;7.87;54.34;98781.87;7712523;32;38652;-85
2023/03/07 09:21:47;;;;;;;32.20;16.87;;;;;;;8.28;54.39;98782.47;7712484;32;37534;-85
2023/03/07 09:26:05;;;;;;;28.65;15.27;;;;;;;8.32;51.60;98774.56;7712747;32;38421;-85
2023/03/07 09:30:22;;;;;;;23.30;12.73;;;;;;;8.55;50.79;98769.53;7712509;32;39572;-83
2023/03/07 09:34:38;;;;;;;32.90;17.42;;;;;;;8.79;45.89;98767.69;7712438;32;38883;-85
2023/03/07 09:38:55;;;;;;;33.30;17.25;;;;;;;9.35;47.97;98765.56;7711376;32;37924;-85
2023/03/07 09:43:25;;;;;;;24.65;14.02;;;;;;;9.34;48.58;98762.00;7711324;32;39971;-84
2023/03/07 09:48:08;;;;;;;29.05;16.98;;;;;;;9.43;44.71;98759.47;7712276;32;39780;-85
2023/03/07 09:52:32;;;;;;;27.35;15.82;;;;;;;9.20;48.08;98769.25;7711143;32;37832;-84
2023/03/07 09:56:56;;;;;;;;;;;;;;;8.62;49.38;98761.88;7711449;32;37243;-85
2023/03/07 10:01:17;;;;;;;26.05;13.90;;;;;;;8.63;51.26;98753.44;7711991;32;40414;-85
2023/03/07 10:05:44;;;;;;;28.80;14.55;;;;;;;8.82;47.44;98764.44;7711754;32;39601;-85
2023/03/07 10:10:03;;;;;;;24.02;13.77;;;;;;;8.87;47.03;98771.72;7712083;32;38836;-86
2023/03/07 10:14:40;;;;;;;26.73;13.95;;;;;;;9.25;44.12;98769.19;7712109;32;37935;-85
2023/03/07 10:19:01;;;;;;;24.98;13.02;;;;;;;9.22;45.71;98775.19;7712176;32;40219;-86
2023/03/07 10:23:36;;;;;;;24.17;12.80;;;;;;;9.34;44.14;98770.19;7711897;32;39682;-85
2023/03/07 10:27:58;;;;;;;22.42;11.50;;;;;;;9.13;43.37;98768.78;7712353;32;37819;-84
2023/03/07 10:32:45;;;;;;;19.10;10.35;;;;;;;9.07;41.94;98769.91;7710713;32;37319;-86
2023/03/07 10:37:09;;;;;;;22.67;11.20;;;;;;;9.32;40.64;98761.50;7690634;32;38021;-85
2023/03/07 10:41:26;;;;;;;20.73;10.60;;;;;;;9.03;41.02;98761.53;7710692;32;39667;-84
2023/03/07 10:45:46;;;;;;;20.48;10.25;;;;;;;8.67;40.51;98756.41;7711788;32;37903;-85
2023/03/07 10:50:15;;;;;;;14.43;7.10;;;;;;;9.21;40.11;98760.81;7711735;32;37673;-86
2023/03/07 10:54:33;;;;;;;18.37;7.55;;;;;;;7.92;38.27;98772.88;7711721;32;40101;-85
2023/03/07 10:59:09;;;;;;;12.27;6.45;;;;;;;7.55;39.98;98760.56;7711510;32;39929;-84
2023/03/07 11:03:45;;;;;;;12.43;6.32;;;;;;;7.21;40.66;98758.50;7711567;32;36719;-84
2023/03/07 11:08:25;;;;;;;13.20;6.55;;;;;;;8.06;39.42;98742.13;7711691;32;37212;-86
2023/03/07 11:12:47;;;;;;;14.25;7.53;;;;;;;7.56;40.99;98754.06;7711512;32;40030;-85
2023/03/07 11:17:38;;;;;;;12.07;6.68;;;;;;;7.83;41.80;98737.38;7710467;32;39994;-85
2023/03/07 11:21:56;;;;;;;17.10;7.65;;;;;;;7.73;40.24;98732.84;7710110;32;37766;-86
2023/03/07 11:26:21;;;;;;;17.98;7.62;;;;;;;7.85;40.82;98741.44;7711757;32;37872;-86
2023/03/07 11:30:48;;;;;;;16.75;8.63;;;;;;;7.82;42.39;98716.78;7711210;32;39194;-86
2023/03/07 11:35:14;;;;;;;15.80;8.45;;;;;;;8.14;41.81;98710.88;7711568;32;38324;-86
2023/03/07 11:39:39;;;;;;;18.75;8.98;;;;;;;8.37;41.12;98698.50;7711120;32;37842;-86
2023/03/07 11:44:41;;;;;;;16.15;8.20;;;;;;;8.29;42.47;98693.66;7711061;32;37878;-85
2023/03/07 11:49:14;;;;;;;16.83;8.30;;;;;;;8.70;41.54;98678.94;7709856;32;39265;-84
2023/03/07 11:53:52;;;;;;;15.82;7.65;;;;;;;9.29;39.10;98664.16;7710469;32;40837;-85
2023/03/07 11:58:48;;;;;;;16.48;8.50;;;;;;;9.65;38.71;98658.25;7710727;32;38574;-85
2023/03/07 12:03:31;;;;;;;14.93;7.87;;;;;;;9.71;38.63;98653.53;7710691;32;37212;-85
2023/03/07 12:08:09;;;;;;;16.55;8.48;;;;;;;9.90;38.35;98645.37;7709569;32;40908;-84
2023/03/07 12:12:35;;;;;;;18.52;9.30;;;;;;;10.11;37.81;98640.44;7710284;32;39895;-86
2023/03/07 12:17:06;;;;;;;17.45;9.10;;;;;;;10.78;36.67;98631.97;7709686;32;37818;-86
2023/03/07 12:21:41;;;;;;;15.57;8.85;;;;;;;10.97;35.44;98622.88;7706915;32;37303;-84
2023/03/07 12:26:05;;;;;;;16.90;8.27;;;;;;;10.67;35.69;98622.34;7709934;32;40599;-84
2023/03/07 12:30:51;;;;;;;16.65;8.93;;;;;;;11.08;35.43;98618.84;7717928;32;39712;-85
2023/03/07 12:35:36;;;;;;;18.12;10.07;;;;;;;11.00;35.30;98616.81;7717149;32;38722;-86
2023/03/07 12:40:01;;;;;;;16.80;8.43;;;;;;;10.95;35.84;98603.28;7708351;32;37902;-85
2023/03/07 12:44:57;;;;;;;19.08;9.30;;;;;;;11.19;35.94;98603.06;7718887;32;39659;-84
2023/03/07 12:49:31;;;;;;;15.45;8.50;;;;;;;11.39;35.04;98604.56;7716092;32;40211;-85
2023/03/07 12:54:13;;;;;;;18.25;9.15;;;;;;;11.39;35.34;98593.66;7718271;32;38603;-85
2023/03/07 12:59:02;;;;;;;19.70;9.82;;;;;;;10.94;35.45;98602.47;7718306;32;37884;-85
2023/03/07 13:03:33;;;;;;;17.73;9.63;;;;;;;11.37;34.98;98587.69;7706810;32;39437;-86
2023/03/07 13:07:50;;;;;;;16.87;8.73;;;;;;;11.28;34.78;98585.69;7716974;32;40083;-86
2023/03/07 13:12:14;;;;;;;18.27;8.35;;;;;;;11.16;34.84;98590.03;7718328;32;37658;-87
2023/03/07 13:16:36;;;;;;;19.77;10.00;;;;;;;11.44;34.33;98574.44;7717889;32;36061;-85
2023/03/07 13:21:29;;;;;;;17.80;9.73;;;;;;;10.98;34.81;98586.31;7717305;32;39474;-84
2023/03/07 13:25:59;;;;;;;18.02;9.40;;;;;;;10.67;35.39;98582.25;7716505;32;40747;-84
2023/03/07 13:30:20;;;;;;;17.42;10.40;;;;;;;9.88;38.66;98582.25;7717416;32;37914;-84
2023/03/07 13:34:50;;;;;;;24.10;11.45;;;;;;;9.23;42.10;98589.19;7716649;32;37342;-86
2023/03/07 13:39:35;;;;;;;21.42;11.98;;;;;;;9.50;41.57;98598.59;7712636;32;40256;-84
2023/03/07 13:43:56;;;;;;;19.20;10.57;;;;;;;8.77;43.29;98597.91;7711166;32;38529;-86
2023/03/07 13:48:38;;;;;;;23.35;10.95;;;;;;;8.57;44.61;98594.31;7711401;32;37998;-85
2023/03/07 13:52:54;;;;;;;20.08;10.63;;;;;;;8.55;45.91;98580.19;7703553;32;38076;-84
2023/03/07 13:57:20;;;;;;;24.25;11.07;;;;;;;8.52;46.97;98575.34;7711216;32;39112;-85
2023/03/07 14:01:39;;;;;;;20.58;11.25;;;;;;;8.72;46.84;98568.87;7711026;32;40758;-86
2023/03/07 14:06:00;;;;;;;26.33;11.57;;;;;;;8.47;47.53;98583.56;7709582;32;38912;-85
2023/03/07 14:10:27;;;;;;;22.55;10.95;;;;;;;8.12;48.66;98571.88;7711117;32;37930;-84
2023/03/07 14:15:06;;;;;;;21.98;10.27;;;;;;;8.04;48.37;98580.66;7708393;32;39305;-84
2023/03/07 14:20:10;;;;;;;21.02;10.00;;;;;;;8.00;48.42;98580.44;7709765;32;39942;-85
2023/03/07 14:24:41;;;;;;;21.50;11.12;;;;;;;8.45;47.68;98575.69;7709551;32;38016;-85
2023/03/07 14:28:58;;;;;;;20.00;10.63;;;;;;;8.69;45.95;98576.78;7707702;32;37253;-83
2023/03/07 14:33:16;;;;;;;19.23;9.88;;;;;;;8.51;46.20;98579.16;7708498;32;39376;-86
2023/03/07 14:37:33;;;;;;;18.62;9.70;;;;;;;8.77;45.45;98565.28;7707618;32;39933;-86
2023/03/07 14:42:13;;;;;;;18.30;9.55;;;;;;;8.65;45.54;98558.34;7710288;32;37755;-85
2023/03/07 14:47:00;;;;;;;20.25;9.43;;;;;;;8.98;45.09;98555.78;7711104;32;36796;-85
2023/03/07 14:51:22;;;;;;;24.08;10.50;;;;;;;8.86;44.94;98547.22;7708426;32;40190;-86
2023/03/07 14:55:41;;;;;;;17.07;9.40;;;;;;;8.72;45.82;98555.28;7709372;32;40707;-86
2023/03/07 15:00:27;;;;;;;19.90;9.95;;;;;;;8.69;45.54;98564.00;7710345;32;38521;-86
2023/03/07 15:04:43;;;;;;;22.67;9.90;;;;;;;8.21;46.97;98562.03;7709845;32;37054;-86
2023/03/07 15:09:02;;;;;;;19.95;9.13;;;;;;;8.37;46.91;98556.47;7711234;32;39575;-85
2023/03/07 15:13:36;;;;;;;19.92;9.25;;;;;;;8.30;47.26;98556.81;7710158;32;38830;-85
2023/03/07 15:17:54;;;;;;;17.73;9.55;;;;;;;8.13;47.19;98543.66;7710603;32;37796;-86
2023/03/07 15:22:25;;;;;;;19.60;9.43;;;;;;;8.08;47.67;98539.06;7709814;32;36350;-87
2023/03/07 15:26:45;;;;;;;18.35;9.35;;;;;;;8.33;46.82;98539.09;7710465;32;39429;-85
2023/03/07 15:31:03;;;;;;;21.10;9.93;;;;;;;8.57;46.16;98525.56;7709905;32;39981;-85
2023/03/07 15:35:25;;;;;;;17.05;9.15;;;;;;;8.62;45.74;98528.22;7710691;32;37490;-86
2023/03/07 15:39:53;;;;;;;18.02;9.68;;;;;;;8.15;46.66;98533.31;7710851;32;37080;-86
2023/03/07 15:44:16;;;;;;;19.67;9.23;;;;;;;8.34;46.23;98529.87;7709967;32;39313;-86
2023/03/07 15:48:51;;;;;;;19.02;9.57;;;;;;;8.22;46.75;98535.69;7710363;32;40698;-86
2023/03/07 15:53:16;;;;;;;20.77;10.52;;;;;;;8.32;46.67;98530.16;7710902;32;37615;-85
2023/03/07 15:57:46;;;;;;;17.33;9.73;;;;;;;8.21;46.35;98526.75;7710358;32;37972;-86
2023/03/07 16:02:30;;;;;;;21.25;10.68;;;;;;;8.18;46.65;98527.31;7709948;32;40130;-85
2023/03/07 16:06:46;;;;;;;38.10;10.70;;;;;;;7.94;47.42;98516.41;7710043;32;40827;-87
2023/03/07 16:11:06;;;;;;;19.75;10.15;;;;;;;8.15;46.89;98522.44;7710270;32;36829;-86
2023/03/07 16:15:23;;;;;;;18.55;9.57;;;;;;;8.23;46.98;98516.41;7708938;32;37440;-85
2023/03/07 16:19:42;;;;;;;20.42;10.13;;;;;;;8.23;46.80;98513.69;7709906;32;39382;-85
2023/03/07 16:24:00;;;;;;;23.80;10.10;;;;;;;8.25;46.94;98506.06;7709768;32;39922;-85
2023/03/07 16:28:16;;;;;;;20.88;10.70;;;;;;;8.56;46.67;98494.09;7709690;32;38791;-86
2023/03/07 16:32:33;;;;;;;24.92;10.43;;;;;;;8.73;46.19;98488.19;7708533;32;37206;-84
2023/03/07 16:36:49;;;;;;;21.52;10.55;;;;;;;8.58;46.48;98478.31;7708657;32;39642;-83
2023/03/07 16:41:20;;;;;;;20.98;10.93;;;;;;;8.48;47.04;98473.78;7708425;32;39731;-83
2023/03/07 16:45:38;;;;;;;20.70;10.30;;;;;;;8.58;46.92;98478.31;7706655;32;38701;-83
2023/03/07 16:49:54;;;;;;;18.77;9.93;;;;;;;8.71;46.97;98479.50;7707315;32;36832;-82
2023/03/07 16:54:10;;;;;;;17.55;10.13;;;;;;;8.25;48.44;98478.91;7706845;32;39375;-85
2023/03/07 16:58:30;;;;;;;23.17;10.68;;;;;;;8.49;48.19;98475.41;7708821;32;40742;-86
2023/03/07 17:02:47;;;;;;;24.30;11.35;;;;;;;8.35;48.40;98474.47;7706462;32;38662;-85
2023/03/07 17:07:14;;;;;;;22.23;11.77;;;;;;;8.49;48.18;98471.91;7709241;32;38091;-86
2023/03/07 17:11:33;;;;;;;20.55;11.45;;;;;;;7.83;50.20;98472.28;7707588;32;39273;-86
2023/03/07 17:15:49;;;;;;;21.50;11.77;;;;;;;8.08;49.84;98476.66;7710040;32;40814;-85
2023/03/07 17:20:07;;;;;;;22.05;11.25;;;;;;;8.14;49.54;98477.41;7712072;32;38873;-85
2023/03/07 17:24:27;;;;;;;21.27;10.02;;;;;;;7.88;50.31;98484.97;7712232;32;37459;-86
2023/03/07 17:28:44;;;;;;;20.80;9.93;;;;;;;7.18;52.11;98488.00;7712116;32;39789;-84
2023/03/07 17:33:00;;;;;;;18.83;9.98;;;;;;;7.89;49.77;98476.56;7711875;32;40007;-85
2023/03/07 17:37:17;;;;;;;17.33;10.07;;;;;;;7.66;50.45;98480.06;7712087;32;37912;-84
2023/03/07 17:41:33;;;;;;;17.08;9.02;;;;;;;7.67;50.06;98474.31;7712381;32;37941;-85
2023/03/07 17:45:50;;;;;;;19.17;9.70;;;;;;;7.92;49.03;98468.94;7712018;32;39861;-85
2023/03/07 17:50:07;;;;;;;16.35;8.55;;;;;;;8.15;48.55;98465.44;7712031;32;40027;-85
2023/03/07 17:54:24;;;;;;;20.48;8.88;;;;;;;8.05;48.58;98450.09;7711959;32;38436;-86
2023/03/07 17:58:40;;;;;;;17.33;8.48;;;;;;;7.53;50.41;98463.31;7711964;32;37269;-85
2023/03/07 18:02:56;;;;;;;17.17;8.10;;;;;;;7.60;50.27;98475.75;7711805;32;39677;-85
2023/03/07 18:07:13;;;;;;;16.37;8.48;;;;;;;7.86;50.02;98474.44;7712045;32;39951;-85
2023/03/07 18:11:29;;;;;;;18.60;9.23;;;;;;;8.30;48.75;98467.19;7711687;32;38117;-86
2023/03/07 18:15:46;;;;;;;17.20;9.32;;;;;;;8.51;48.39;98459.63;7711662;32;37275;-85
2023/03/07 18:20:09;;;;;;;17.87;8.32;;;;;;;8.44;48.77;98456.47;7711474;32;40062;-86
2023/03/07 18:24:28;;;;;;;18.80;8.73;;;;;;;8.53;48.63;98452.00;7711423;32;40616;-85
2023/03/07 18:28:46;;;;;;;19.08;8.75;;;;;;;8.07;50.11;98466.06;7711630;32;37879;-85
2023/03/07 18:33:02;;;;;;;16.50;8.73;;;;;;;8.37;49.58;98469.56;7710187;32;37928;-85
2023/03/07 18:37:19;;;;;;;17.98;9.20;;;;;;;8.31;49.78;98459.84;7711404;32;39986;-85
2023/03/07 18:41:36;;;;;;;19.02;9.38;;;;;;;8.63;49.25;98454.59;7711565;32;39678;-85
2023/03/07 18:45:52;;;;;;;17.42;8.80;;;;;;;8.54;49.60;98447.41;7710896;32;37787;-85
2023/03/07 18:50:09;;;;;;;17.27;8.77;;;;;;;8.59;49.51;98450.84;7711425;32;37169;-85
2023/03/07 18:54:26;;;;;;;18.10;9.07;;;;;;;8.60;49.75;98438.87;7710528;32;39093;-84
2023/03/07 18:58:43;;;;;;;17.08;9.82;;;;;;;8.43;50.20;98435.84;7711556;32;40743;-85
2023/03/07 19:02:59;;;;;;;20.20;11.10;;;;;;;8.58;49.55;98430.19;7710519;32;37734;-85
2023/03/07 19:07:15;;;;;;;23.27;10.23;;;;;;;8.64;49.59;98430.94;7711712;32;36935;-85
2023/03/07 19:11:32;;;;;;;18.17;9.73;;;;;;;8.54;49.91;98431.91;7710674;32;39740;-84
2023/03/07 19:15:48;;;;;;;19.48;9.90;;;;;;;8.61;50.03;98428.81;7711185;32;40027;-85
2023/03/07 19:20:05;;;;;;;22.27;10.80;;;;;;;8.45;50.71;98422.75;7711571;32;36948;-86
2023/03/07 19:24:21;;;;;;;18.70;10.25;;;;;;;8.69;50.21;98411.84;7711382;32;37295;-84
2023/03/07 19:28:38;;;;;;;21.48;10.52;;;;;;;8.58;50.54;98413.91;7710099;32;39355;-84
2023/03/07 19:32:57;;;;;;;21.35;10.13;;;;;;;8.42;51.15;98412.47;7710953;32;40729;-84
2023/03/07 19:37:13;;;;;;;20.88;10.23;;;;;;;8.47;51.16;98415.16;7709848;32;37002;-86
2023/03/07 19:41:31;;;;;;;24.23;11.05;;;;;;;8.48;51.25;98416.75;7711039;32;37970;-85
2023/03/07 19:45:47;;;;;;;19.98;10.48;;;;;;;8.22;51.95;98419.75;7711032;32;39015;-85
2023/03/07 19:50:03;;;;;;;27.95;13.15;;;;;;;8.22;52.08;98419.75;7711025;32;40701;-86
2023/03/07 19:54:21;;;;;;;19.65;10.68;;;;;;;8.37;51.70;98423.41;7709428;32;37582;-84
2023/03/07 19:58:37;;;;;;;21.27;10.65;;;;;;;8.42;51.56;98418.75;7704127;32;37944;-87
2023/03/07 20:02:53;;;;;;;21.00;10.82;;;;;;;8.36;51.73;98410.91;7710868;32;38564;-84
2023/03/07 20:07:10;;;;;;;22.02;11.90;;;;;;;8.39;51.90;98402.19;7710583;32;39688;-85
2023/03/07 20:11:29;;;;;;;21.10;10.68;;;;;;;8.25;52.33;98407.53;7710131;32;38726;-85
2023/03/07 20:15:51;;;;;;;21.70;11.45;;;;;;;8.19;52.63;98405.94;7709131;32;37299;-85
2023/03/07 20:20:08;;;;;;;21.17;12.43;;;;;;;8.12;52.82;98405.50;7708994;32;39372;-85